sensor_id;sensor_type;location;lat;lon;timestamp;pressure;altitude;pressure_sealevel;temperature;humidity
15529;BME280;7866;52.280;9.500;2023-07-20T00:02:40;100036.81;;;16.34;78.28
15529;BME280;7866;52.280;9.500;2023-07-20T00:07:43;100028.88;;;16.39;77.96
15529;BME280;7866;52.280;9.500;2023-07-20T00:12:45;100027.47;;;16.36;78.06
15529;BME280;7866;52.280;9.500;2023-07-20T00:17:47;100031.00;;;16.30;78.16
15529;BME280;7866;52.280;9.500;2023-07-20T00:22:50;100016.72;;;16.16;78.19
15529;BME280;7866;52.280;9.500;2023-07-20T00:27:52;100017.56;;;16.17;78.19
15529;BME280;7866;52.280;9.500;2023-07-20T00:32:54;100026.91;;;16.21;77.96
15529;BME280;7866;52.280;9.500;2023-07-20T00:37:57;100037.13;;;15.99;78.02
15529;BME280;7866;52.280;9.500;2023-07-20T00:42:58;100022.16;;;16.10;78.64
15529;BME280;7866;52.280;9.500;2023-07-20T00:48:01;100013.41;;;16.08;78.50
15529;BME280;7866;52.280;9.500;2023-07-20T00:53:05;100012.63;;;16.00;78.09
15529;BME280;7866;52.280;9.500;2023-07-20T00:58:06;100002.03;;;15.99;78.12
15529;BME280;7866;52.280;9.500;2023-07-20T01:03:08;100010.75;;;16.01;78.27
15529;BME280;7866;52.280;9.500;2023-07-20T01:08:16;100006.41;;;15.93;78.12
15529;BME280;7866;52.280;9.500;2023-07-20T01:13:19;100012.47;;;15.89;78.75
15529;BME280;7866;52.280;9.500;2023-07-20T01:18:23;100013.91;;;15.85;78.50
15529;BME280;7866;52.280;9.500;2023-07-20T01:29:22;100007.88;;;15.83;78.16
15529;BME280;7866;52.280;9.500;2023-07-20T01:34:29;100002.75;;;15.68;78.56
15529;BME280;7866;52.280;9.500;2023-07-20T01:39:33;100014.75;;;15.79;79.06
15529;BME280;7866;52.280;9.500;2023-07-20T01:44:36;100011.44;;;15.76;78.70
15529;BME280;7866;52.280;9.500;2023-07-20T01:49:39;100012.47;;;15.75;78.26
15529;BME280;7866;52.280;9.500;2023-07-20T01:54:41;100008.47;;;15.91;78.51
15529;BME280;7866;52.280;9.500;2023-07-20T01:59:43;100011.34;;;16.03;77.98
15529;BME280;7866;52.280;9.500;2023-07-20T02:04:46;100002.25;;;15.97;78.41
15529;BME280;7866;52.280;9.500;2023-07-20T02:09:48;100003.91;;;15.98;78.63
15529;BME280;7866;52.280;9.500;2023-07-20T02:14:49;100007.25;;;15.87;78.46
15529;BME280;7866;52.280;9.500;2023-07-20T02:19:54;100011.22;;;15.85;79.14
15529;BME280;7866;52.280;9.500;2023-07-20T02:24:55;100011.22;;;15.78;79.34
15529;BME280;7866;52.280;9.500;2023-07-20T02:29:57;100002.28;;;15.84;79.22
15529;BME280;7866;52.280;9.500;2023-07-20T02:35:00;100011.00;;;15.86;79.38
15529;BME280;7866;52.280;9.500;2023-07-20T02:40:05;100009.94;;;16.00;78.97
15529;BME280;7866;52.280;9.500;2023-07-20T02:45:08;100004.94;;;16.04;79.18
15529;BME280;7866;52.280;9.500;2023-07-20T02:50:11;100002.59;;;16.08;79.11
15529;BME280;7866;52.280;9.500;2023-07-20T02:55:14;100012.19;;;16.04;79.63
15529;BME280;7866;52.280;9.500;2023-07-20T03:00:16;99994.16;;;15.91;79.88
15529;BME280;7866;52.280;9.500;2023-07-20T03:05:21;99994.97;;;15.98;79.66
15529;BME280;7866;52.280;9.500;2023-07-20T03:10:22;100002.72;;;15.81;80.24
15529;BME280;7866;52.280;9.500;2023-07-20T03:15:24;100006.81;;;15.97;80.18
15529;BME280;7866;52.280;9.500;2023-07-20T03:20:27;100024.84;;;16.10;79.32
15529;BME280;7866;52.280;9.500;2023-07-20T03:25:29;100009.28;;;15.98;79.73
15529;BME280;7866;52.280;9.500;2023-07-20T03:30:30;100004.88;;;16.11;79.80
15529;BME280;7866;52.280;9.500;2023-07-20T03:35:33;100012.19;;;16.04;79.06
15529;BME280;7866;52.280;9.500;2023-07-20T03:40:35;100010.50;;;16.16;79.43
15529;BME280;7866;52.280;9.500;2023-07-20T03:45:36;100017.38;;;16.12;79.28
15529;BME280;7866;52.280;9.500;2023-07-20T03:50:39;100019.22;;;16.18;79.10
15529;BME280;7866;52.280;9.500;2023-07-20T03:55:41;100028.53;;;16.22;79.53
15529;BME280;7866;52.280;9.500;2023-07-20T04:00:44;100030.00;;;16.24;79.58
15529;BME280;7866;52.280;9.500;2023-07-20T04:05:48;100036.22;;;16.25;79.86
15529;BME280;7866;52.280;9.500;2023-07-20T04:10:49;100042.03;;;16.29;79.98
15529;BME280;7866;52.280;9.500;2023-07-20T04:15:51;100039.00;;;16.12;81.12
15529;BME280;7866;52.280;9.500;2023-07-20T04:20:54;100041.06;;;16.10;81.82
15529;BME280;7866;52.280;9.500;2023-07-20T04:25:55;100043.53;;;16.11;82.53
15529;BME280;7866;52.280;9.500;2023-07-20T04:31:09;100042.94;;;16.16;82.92
15529;BME280;7866;52.280;9.500;2023-07-20T04:36:12;100057.28;;;16.10;82.54
15529;BME280;7866;52.280;9.500;2023-07-20T04:41:16;100064.19;;;15.92;82.83
15529;BME280;7866;52.280;9.500;2023-07-20T04:46:18;100059.56;;;16.06;83.26
15529;BME280;7866;52.280;9.500;2023-07-20T04:51:23;100067.25;;;16.16;83.50
15529;BME280;7866;52.280;9.500;2023-07-20T04:56:24;100066.44;;;16.02;83.58
15529;BME280;7866;52.280;9.500;2023-07-20T05:01:26;100062.72;;;15.83;83.94
15529;BME280;7866;52.280;9.500;2023-07-20T05:06:29;100061.69;;;15.71;84.93
15529;BME280;7866;52.280;9.500;2023-07-20T05:11:30;100067.47;;;15.88;84.28
15529;BME280;7866;52.280;9.500;2023-07-20T05:16:32;100069.13;;;16.02;84.91
15529;BME280;7866;52.280;9.500;2023-07-20T05:21:35;100073.94;;;15.87;85.25
15529;BME280;7866;52.280;9.500;2023-07-20T05:26:37;100074.97;;;15.79;85.33
15529;BME280;7866;52.280;9.500;2023-07-20T05:31:38;100083.72;;;15.81;85.70
15529;BME280;7866;52.280;9.500;2023-07-20T05:36:41;100092.44;;;15.90;85.84
15529;BME280;7866;52.280;9.500;2023-07-20T05:41:43;100090.34;;;15.79;86.44
15529;BME280;7866;52.280;9.500;2023-07-20T05:46:44;100089.28;;;16.06;86.46
15529;BME280;7866;52.280;9.500;2023-07-20T05:51:47;100089.16;;;16.39;85.00
15529;BME280;7866;52.280;9.500;2023-07-20T05:56:49;100081.16;;;16.13;84.61
15529;BME280;7866;52.280;9.500;2023-07-20T06:01:51;100087.94;;;16.42;84.82
15529;BME280;7866;52.280;9.500;2023-07-20T06:06:54;100084.41;;;16.41;83.28
15529;BME280;7866;52.280;9.500;2023-07-20T06:11:55;100081.53;;;16.23;83.71
15529;BME280;7866;52.280;9.500;2023-07-20T06:16:57;100091.94;;;16.26;84.90
15529;BME280;7866;52.280;9.500;2023-07-20T06:22:00;100095.44;;;16.33;84.29
15529;BME280;7866;52.280;9.500;2023-07-20T06:27:02;100101.38;;;16.62;84.27
15529;BME280;7866;52.280;9.500;2023-07-20T06:32:07;100122.66;;;16.45;84.30
15529;BME280;7866;52.280;9.500;2023-07-20T06:37:10;100125.88;;;16.80;83.08
15529;BME280;7866;52.280;9.500;2023-07-20T06:42:11;100127.81;;;16.60;82.49
15529;BME280;7866;52.280;9.500;2023-07-20T06:47:13;100136.69;;;16.67;84.20
15529;BME280;7866;52.280;9.500;2023-07-20T06:52:16;100131.66;;;17.54;82.13
15529;BME280;7866;52.280;9.500;2023-07-20T06:57:18;100137.44;;;17.01;81.15
15529;BME280;7866;52.280;9.500;2023-07-20T07:02:19;100141.63;;;16.96;80.75
15529;BME280;7866;52.280;9.500;2023-07-20T07:07:22;100141.69;;;17.53;79.45
15529;BME280;7866;52.280;9.500;2023-07-20T07:12:24;100136.38;;;18.15;78.64
15529;BME280;7866;52.280;9.500;2023-07-20T07:17:26;100134.31;;;17.92;77.48
15529;BME280;7866;52.280;9.500;2023-07-20T07:22:28;100137.25;;;18.70;76.33
15529;BME280;7866;52.280;9.500;2023-07-20T07:27:30;100138.97;;;18.03;77.45
15529;BME280;7866;52.280;9.500;2023-07-20T07:32:32;100145.25;;;17.79;78.57
15529;BME280;7866;52.280;9.500;2023-07-20T07:37:35;100136.09;;;18.97;75.04
15529;BME280;7866;52.280;9.500;2023-07-20T07:42:37;100146.38;;;17.96;76.24
15529;BME280;7866;52.280;9.500;2023-07-20T07:47:38;100152.97;;;18.99;74.54
15529;BME280;7866;52.280;9.500;2023-07-20T07:52:41;100153.56;;;19.31;70.95
15529;BME280;7866;52.280;9.500;2023-07-20T07:57:43;100166.22;;;19.07;72.58
15529;BME280;7866;52.280;9.500;2023-07-20T08:02:45;100164.94;;;19.39;70.90
15529;BME280;7866;52.280;9.500;2023-07-20T08:07:49;100169.09;;;19.12;71.88
15529;BME280;7866;52.280;9.500;2023-07-20T08:12:51;100167.41;;;19.41;69.36
15529;BME280;7866;52.280;9.500;2023-07-20T08:17:52;100173.59;;;19.18;69.38
15529;BME280;7866;52.280;9.500;2023-07-20T08:22:56;100166.16;;;20.09;67.45
15529;BME280;7866;52.280;9.500;2023-07-20T08:27:58;100174.19;;;20.04;66.25
15529;BME280;7866;52.280;9.500;2023-07-20T08:33:01;100176.41;;;19.41;67.04
15529;BME280;7866;52.280;9.500;2023-07-20T08:38:04;100187.41;;;19.58;67.81
15529;BME280;7866;52.280;9.500;2023-07-20T08:43:06;100174.84;;;20.81;63.57
15529;BME280;7866;52.280;9.500;2023-07-20T08:48:08;100188.72;;;19.56;67.35
15529;BME280;7866;52.280;9.500;2023-07-20T08:53:12;100185.44;;;20.31;64.09
15529;BME280;7866;52.280;9.500;2023-07-20T08:58:15;100186.94;;;20.38;63.03
15529;BME280;7866;52.280;9.500;2023-07-20T09:03:17;100179.03;;;20.72;62.27
15529;BME280;7866;52.280;9.500;2023-07-20T09:08:20;100176.22;;;20.67;60.06
15529;BME280;7866;52.280;9.500;2023-07-20T09:13:24;100182.50;;;20.56;60.93
15529;BME280;7866;52.280;9.500;2023-07-20T09:18:28;100185.00;;;20.98;59.96
15529;BME280;7866;52.280;9.500;2023-07-20T09:23:32;100191.81;;;20.36;61.80
15529;BME280;7866;52.280;9.500;2023-07-20T09:28:41;100190.50;;;20.04;63.42
15529;BME280;7866;52.280;9.500;2023-07-20T09:33:43;100183.25;;;21.20;58.91
15529;BME280;7866;52.280;9.500;2023-07-20T09:38:46;100193.84;;;20.53;59.69
15529;BME280;7866;52.280;9.500;2023-07-20T09:43:49;100190.81;;;20.89;60.47
15529;BME280;7866;52.280;9.500;2023-07-20T09:48:54;100187.38;;;21.63;58.00
15529;BME280;7866;52.280;9.500;2023-07-20T09:53:57;100179.75;;;21.65;54.88
15529;BME280;7866;52.280;9.500;2023-07-20T09:58:59;100190.53;;;20.39;56.29
15529;BME280;7866;52.280;9.500;2023-07-20T10:04:03;100182.53;;;21.53;55.73
15529;BME280;7866;52.280;9.500;2023-07-20T10:09:07;100188.53;;;22.01;54.48
15529;BME280;7866;52.280;9.500;2023-07-20T10:14:12;100177.19;;;21.30;56.38
15529;BME280;7866;52.280;9.500;2023-07-20T10:19:22;100183.25;;;20.91;57.14
15529;BME280;7866;52.280;9.500;2023-07-20T10:24:27;100188.00;;;21.70;55.11
15529;BME280;7866;52.280;9.500;2023-07-20T10:29:29;100163.44;;;22.76;53.21
15529;BME280;7866;52.280;9.500;2023-07-20T10:34:31;100169.03;;;22.26;54.55
15529;BME280;7866;52.280;9.500;2023-07-20T10:39:34;100170.22;;;22.52;52.51
15529;BME280;7866;52.280;9.500;2023-07-20T10:44:37;100164.63;;;22.42;53.13
15529;BME280;7866;52.280;9.500;2023-07-20T10:50:02;100171.91;;;21.52;52.88
15529;BME280;7866;52.280;9.500;2023-07-20T10:55:14;100175.97;;;21.09;54.79
15529;BME280;7866;52.280;9.500;2023-07-20T11:00:20;100179.47;;;20.81;55.82
15529;BME280;7866;52.280;9.500;2023-07-20T11:05:37;100173.25;;;21.37;54.24
15529;BME280;7866;52.280;9.500;2023-07-20T11:10:41;100168.03;;;21.98;52.95
15529;BME280;7866;52.280;9.500;2023-07-20T11:15:47;100171.47;;;21.43;53.34
15529;BME280;7866;52.280;9.500;2023-07-20T11:20:50;100180.56;;;21.49;53.93
15529;BME280;7866;52.280;9.500;2023-07-20T11:25:53;100190.03;;;20.77;56.36
15529;BME280;7866;52.280;9.500;2023-07-20T11:30:55;100191.94;;;20.53;57.19
15529;BME280;7866;52.280;9.500;2023-07-20T11:35:57;100184.81;;;20.76;56.22
15529;BME280;7866;52.280;9.500;2023-07-20T11:41:02;100178.03;;;21.76;55.48
15529;BME280;7866;52.280;9.500;2023-07-20T11:46:05;100167.06;;;22.82;49.93
15529;BME280;7866;52.280;9.500;2023-07-20T11:51:13;100156.47;;;22.25;49.79
15529;BME280;7866;52.280;9.500;2023-07-20T11:56:16;100155.72;;;22.12;51.31
15529;BME280;7866;52.280;9.500;2023-07-20T12:01:18;100157.03;;;22.87;49.65
15529;BME280;7866;52.280;9.500;2023-07-20T12:06:23;100162.41;;;22.38;51.16
15529;BME280;7866;52.280;9.500;2023-07-20T12:11:33;100168.09;;;21.70;51.46
15529;BME280;7866;52.280;9.500;2023-07-20T12:16:36;100169.03;;;21.75;52.28
15529;BME280;7866;52.280;9.500;2023-07-20T12:21:40;100168.03;;;21.64;52.41
15529;BME280;7866;52.280;9.500;2023-07-20T12:26:43;100155.81;;;22.18;51.76
15529;BME280;7866;52.280;9.500;2023-07-20T12:31:45;100153.34;;;22.16;52.11
15529;BME280;7866;52.280;9.500;2023-07-20T12:36:47;100157.94;;;21.82;51.98
15529;BME280;7866;52.280;9.500;2023-07-20T12:41:50;100144.44;;;21.42;53.58
15529;BME280;7866;52.280;9.500;2023-07-20T12:46:51;100155.22;;;21.48;52.70
15529;BME280;7866;52.280;9.500;2023-07-20T12:51:53;100151.13;;;21.34;53.55
15529;BME280;7866;52.280;9.500;2023-07-20T12:56:56;100149.09;;;21.58;53.02
15529;BME280;7866;52.280;9.500;2023-07-20T13:01:58;100143.06;;;21.39;52.51
15529;BME280;7866;52.280;9.500;2023-07-20T13:06:59;100145.63;;;21.17;53.40
15529;BME280;7866;52.280;9.500;2023-07-20T13:12:03;100140.59;;;21.54;53.43
15529;BME280;7866;52.280;9.500;2023-07-20T13:17:05;100146.88;;;21.88;52.25
15529;BME280;7866;52.280;9.500;2023-07-20T13:22:06;100136.81;;;21.72;51.03
15529;BME280;7866;52.280;9.500;2023-07-20T13:27:09;100149.09;;;21.29;51.15
15529;BME280;7866;52.280;9.500;2023-07-20T13:32:12;100156.03;;;21.20;50.85
15529;BME280;7866;52.280;9.500;2023-07-20T13:37:14;100151.28;;;20.99;50.54
15529;BME280;7866;52.280;9.500;2023-07-20T13:42:17;100157.59;;;21.16;51.31
15529;BME280;7866;52.280;9.500;2023-07-20T13:47:19;100159.38;;;21.10;50.67
15529;BME280;7866;52.280;9.500;2023-07-20T13:52:21;100154.31;;;22.10;48.65
15529;BME280;7866;52.280;9.500;2023-07-20T13:57:24;100148.28;;;23.07;46.58
15529;BME280;7866;52.280;9.500;2023-07-20T14:02:26;100145.28;;;22.65;47.82
15529;BME280;7866;52.280;9.500;2023-07-20T14:07:27;100138.00;;;22.71;48.94
15529;BME280;7866;52.280;9.500;2023-07-20T14:12:30;100139.81;;;23.63;46.67
15529;BME280;7866;52.280;9.500;2023-07-20T14:17:32;100136.84;;;23.10;46.71
15529;BME280;7866;52.280;9.500;2023-07-20T14:22:34;100130.34;;;23.44;47.08
15529;BME280;7866;52.280;9.500;2023-07-20T14:27:37;100133.19;;;23.86;45.64
15529;BME280;7866;52.280;9.500;2023-07-20T14:32:38;100126.75;;;23.11;47.09
15529;BME280;7866;52.280;9.500;2023-07-20T14:37:40;100125.56;;;22.19;49.22
15529;BME280;7866;52.280;9.500;2023-07-20T14:42:43;100120.28;;;21.96;49.48
15529;BME280;7866;52.280;9.500;2023-07-20T14:47:45;100122.56;;;23.30;46.90
15529;BME280;7866;52.280;9.500;2023-07-20T14:52:49;100100.72;;;23.95;46.16
15529;BME280;7866;52.280;9.500;2023-07-20T14:57:52;100114.28;;;24.22;45.53
15529;BME280;7866;52.280;9.500;2023-07-20T15:02:54;100119.63;;;23.37;46.23
15529;BME280;7866;52.280;9.500;2023-07-20T15:07:56;100110.69;;;22.93;47.03
15529;BME280;7866;52.280;9.500;2023-07-20T15:12:59;100100.78;;;22.43;47.60
15529;BME280;7866;52.280;9.500;2023-07-20T15:18:00;100105.06;;;22.17;49.39
15529;BME280;7866;52.280;9.500;2023-07-20T15:23:02;100098.69;;;22.11;50.01
15529;BME280;7866;52.280;9.500;2023-07-20T15:28:05;100108.25;;;21.75;49.70
15529;BME280;7866;52.280;9.500;2023-07-20T15:33:07;100111.78;;;21.58;50.30
15529;BME280;7866;52.280;9.500;2023-07-20T15:38:09;100110.38;;;21.39;50.37
15529;BME280;7866;52.280;9.500;2023-07-20T15:43:12;100127.69;;;21.50;49.67
15529;BME280;7866;52.280;9.500;2023-07-20T15:48:14;100144.44;;;21.13;50.07
15529;BME280;7866;52.280;9.500;2023-07-20T15:53:16;100161.44;;;20.39;51.69
15529;BME280;7866;52.280;9.500;2023-07-20T15:58:19;100160.72;;;20.44;51.64
15529;BME280;7866;52.280;9.500;2023-07-20T16:03:21;100151.53;;;20.85;50.75
15529;BME280;7866;52.280;9.500;2023-07-20T16:08:24;100149.03;;;21.24;49.78
15529;BME280;7866;52.280;9.500;2023-07-20T16:13:27;100148.44;;;20.94;50.42
15529;BME280;7866;52.280;9.500;2023-07-20T16:18:28;100143.59;;;20.96;50.14
15529;BME280;7866;52.280;9.500;2023-07-20T16:23:30;100130.59;;;21.43;50.15
15529;BME280;7866;52.280;9.500;2023-07-20T16:28:34;100128.03;;;21.36;49.24
15529;BME280;7866;52.280;9.500;2023-07-20T16:33:36;100119.25;;;21.06;49.78
15529;BME280;7866;52.280;9.500;2023-07-20T16:38:37;100109.31;;;21.11;49.35
15529;BME280;7866;52.280;9.500;2023-07-20T16:43:40;100112.03;;;21.40;49.11
15529;BME280;7866;52.280;9.500;2023-07-20T16:48:42;100107.81;;;21.21;50.14
15529;BME280;7866;52.280;9.500;2023-07-20T16:53:43;100102.78;;;21.12;49.40
15529;BME280;7866;52.280;9.500;2023-07-20T16:58:47;100102.81;;;21.01;50.09
15529;BME280;7866;52.280;9.500;2023-07-20T17:03:48;100101.22;;;20.48;50.72
15529;BME280;7866;52.280;9.500;2023-07-20T17:08:50;100099.16;;;20.66;50.79
15529;BME280;7866;52.280;9.500;2023-07-20T17:13:53;100088.91;;;20.57;51.18
15529;BME280;7866;52.280;9.500;2023-07-20T17:18:54;100085.28;;;20.28;51.57
15529;BME280;7866;52.280;9.500;2023-07-20T17:23:56;100083.88;;;20.13;52.22
15529;BME280;7866;52.280;9.500;2023-07-20T17:28:59;100068.50;;;20.31;52.32
15529;BME280;7866;52.280;9.500;2023-07-20T17:34:02;100071.59;;;20.11;51.99
15529;BME280;7866;52.280;9.500;2023-07-20T17:39:03;100067.81;;;20.12;54.59
15529;BME280;7866;52.280;9.500;2023-07-20T17:44:06;100071.94;;;20.03;56.29
15529;BME280;7866;52.280;9.500;2023-07-20T17:49:09;100075.50;;;19.91;56.52
15529;BME280;7866;52.280;9.500;2023-07-20T17:54:10;100072.53;;;19.93;57.24
15529;BME280;7866;52.280;9.500;2023-07-20T17:59:13;100067.72;;;19.95;57.42
15529;BME280;7866;52.280;9.500;2023-07-20T18:04:15;100067.94;;;19.82;58.10
15529;BME280;7866;52.280;9.500;2023-07-20T18:09:17;100071.19;;;19.49;59.39
15529;BME280;7866;52.280;9.500;2023-07-20T18:14:20;100071.44;;;19.59;59.67
15529;BME280;7866;52.280;9.500;2023-07-20T18:19:21;100072.59;;;19.28;60.76
15529;BME280;7866;52.280;9.500;2023-07-20T18:24:23;100069.56;;;19.06;61.40
15529;BME280;7866;52.280;9.500;2023-07-20T18:29:26;100069.84;;;18.86;61.76
15529;BME280;7866;52.280;9.500;2023-07-20T18:34:28;100058.72;;;18.76;62.78
15529;BME280;7866;52.280;9.500;2023-07-20T18:39:29;100056.22;;;18.74;62.62
15529;BME280;7866;52.280;9.500;2023-07-20T18:44:32;100060.63;;;18.38;63.53
15529;BME280;7866;52.280;9.500;2023-07-20T18:49:34;100051.28;;;18.34;63.87
15529;BME280;7866;52.280;9.500;2023-07-20T18:54:35;100048.50;;;18.22;63.92
15529;BME280;7866;52.280;9.500;2023-07-20T18:59:38;100051.69;;;18.01;64.34
15529;BME280;7866;52.280;9.500;2023-07-20T19:04:41;100048.72;;;18.03;64.69
15529;BME280;7866;52.280;9.500;2023-07-20T19:09:43;100057.41;;;17.68;65.32
15529;BME280;7866;52.280;9.500;2023-07-20T19:14:46;100062.19;;;17.66;65.57
15529;BME280;7866;52.280;9.500;2023-07-20T19:19:47;100065.81;;;17.60;65.97
15529;BME280;7866;52.280;9.500;2023-07-20T19:24:49;100063.97;;;17.29;66.38
15529;BME280;7866;52.280;9.500;2023-07-20T19:29:52;100065.75;;;17.10;66.81
15529;BME280;7866;52.280;9.500;2023-07-20T19:34:54;100071.47;;;16.95;67.13
15529;BME280;7866;52.280;9.500;2023-07-20T19:39:55;100081.72;;;16.86;67.36
15529;BME280;7866;52.280;9.500;2023-07-20T19:44:58;100087.97;;;16.87;67.14
15529;BME280;7866;52.280;9.500;2023-07-20T19:50:00;100088.94;;;16.47;68.52
15529;BME280;7866;52.280;9.500;2023-07-20T19:55:02;100095.13;;;16.61;68.21
15529;BME280;7866;52.280;9.500;2023-07-20T20:00:08;100094.34;;;16.47;68.54
15529;BME280;7866;52.280;9.500;2023-07-20T20:05:12;100084.06;;;16.18;69.50
15529;BME280;7866;52.280;9.500;2023-07-20T20:10:15;100092.81;;;16.13;69.65
15529;BME280;7866;52.280;9.500;2023-07-20T20:15:18;100083.44;;;16.16;69.31
15529;BME280;7866;52.280;9.500;2023-07-20T20:20:19;100085.09;;;16.17;69.29
15529;BME280;7866;52.280;9.500;2023-07-20T20:25:22;100078.47;;;16.13;68.84
15529;BME280;7866;52.280;9.500;2023-07-20T20:30:25;100076.97;;;16.23;68.73
15529;BME280;7866;52.280;9.500;2023-07-20T20:35:27;100068.25;;;16.21;68.68
15529;BME280;7866;52.280;9.500;2023-07-20T20:40:30;100065.03;;;15.73;70.31
15529;BME280;7866;52.280;9.500;2023-07-20T20:45:34;100076.00;;;15.58;70.80
15529;BME280;7866;52.280;9.500;2023-07-20T20:50:37;100065.84;;;15.60;71.23
15529;BME280;7866;52.280;9.500;2023-07-20T20:55:43;100069.38;;;15.61;71.45
15529;BME280;7866;52.280;9.500;2023-07-20T21:00:46;100069.59;;;15.72;70.69
15529;BME280;7866;52.280;9.500;2023-07-20T21:05:47;100072.72;;;15.76;70.23
15529;BME280;7866;52.280;9.500;2023-07-20T21:10:49;100073.09;;;15.80;70.03
15529;BME280;7866;52.280;9.500;2023-07-20T21:15:53;100081.66;;;15.76;70.01
15529;BME280;7866;52.280;9.500;2023-07-20T21:20:56;100079.34;;;15.73;70.40
15529;BME280;7866;52.280;9.500;2023-07-20T21:25:57;100066.47;;;15.75;70.79
15529;BME280;7866;52.280;9.500;2023-07-20T21:31:05;100071.84;;;15.62;70.76
15529;BME280;7866;52.280;9.500;2023-07-20T21:36:07;100073.53;;;15.70;71.60
15529;BME280;7866;52.280;9.500;2023-07-20T21:41:09;100070.03;;;15.76;71.24
15529;BME280;7866;52.280;9.500;2023-07-20T21:46:12;100067.72;;;15.73;71.40
15529;BME280;7866;52.280;9.500;2023-07-20T21:51:13;100066.69;;;15.67;71.63
15529;BME280;7866;52.280;9.500;2023-07-20T21:56:16;100064.00;;;15.74;71.40
15529;BME280;7866;52.280;9.500;2023-07-20T22:01:19;100062.53;;;15.71;72.10
15529;BME280;7866;52.280;9.500;2023-07-20T22:06:21;100060.47;;;15.73;72.49
15529;BME280;7866;52.280;9.500;2023-07-20T22:11:23;100047.38;;;15.70;72.58
15529;BME280;7866;52.280;9.500;2023-07-20T22:16:26;100052.16;;;15.68;72.51
15529;BME280;7866;52.280;9.500;2023-07-20T22:21:28;100053.81;;;15.76;72.35
15529;BME280;7866;52.280;9.500;2023-07-20T22:26:29;100043.81;;;15.83;72.40
15529;BME280;7866;52.280;9.500;2023-07-20T22:31:32;100047.28;;;16.04;71.88
15529;BME280;7866;52.280;9.500;2023-07-20T22:36:34;100042.94;;;16.09;71.58
15529;BME280;7866;52.280;9.500;2023-07-20T22:41:35;100040.44;;;16.08;71.45
15529;BME280;7866;52.280;9.500;2023-07-20T22:46:38;100041.28;;;16.01;71.33
15529;BME280;7866;52.280;9.500;2023-07-20T22:51:40;100032.56;;;15.99;71.79
15529;BME280;7866;52.280;9.500;2023-07-20T22:56:43;100023.22;;;16.02;72.07
15529;BME280;7866;52.280;9.500;2023-07-20T23:01:45;100021.16;;;15.91;72.68
15529;BME280;7866;52.280;9.500;2023-07-20T23:06:48;100018.84;;;16.01;72.85
15529;BME280;7866;52.280;9.500;2023-07-20T23:11:49;100019.25;;;16.05;72.32
15529;BME280;7866;52.280;9.500;2023-07-20T23:16:53;100015.91;;;16.09;72.18
15529;BME280;7866;52.280;9.500;2023-07-20T23:21:55;100009.06;;;16.13;72.26
15529;BME280;7866;52.280;9.500;2023-07-20T23:26:57;99999.88;;;16.21;72.07
15529;BME280;7866;52.280;9.500;2023-07-20T23:32:01;99992.63;;;16.15;72.02
15529;BME280;7866;52.280;9.500;2023-07-20T23:37:03;99992.63;;;16.15;72.68
15529;BME280;7866;52.280;9.500;2023-07-20T23:42:06;99984.75;;;16.07;73.02
15529;BME280;7866;52.280;9.500;2023-07-20T23:47:09;99980.38;;;16.12;73.07
15529;BME280;7866;52.280;9.500;2023-07-20T23:52:14;99981.56;;;16.23;72.74
15529;BME280;7866;52.280;9.500;2023-07-20T23:57:18;99975.31;;;16.29;72.36
